Time;durP1;ratioP1;P1;durP2;ratioP2;P2;SDS_P1;SDS_P2;PMS_P1;PMS_P2;Temp;Humidity;BMP_temperature;BMP_pressure;BME280_temperature;BME280_humidity;BME280_pressure;Samples;Min_cycle;Max_cycle;Signal;HPM_P1;HPM_P2
2023/09/11 00:01:56;;;;;;;12.50;8.53;;;;;;;;;;5057005;28;20090;-46
2023/09/11 00:04:21;;;;;;;12.63;8.43;;;;;;;;;;5055935;28;20406;-46
2023/09/11 00:06:47;;;;;;;14.48;8.15;;;;;;;;;;5052426;28;20139;-46
2023/09/11 00:09:12;;;;;;;12.55;7.72;;;;;;;;;;5056751;28;20404;-46
2023/09/11 00:11:37;;;;;;;10.70;8.33;;;;;;;;;;5054442;28;20024;-45
2023/09/11 00:14:03;;;;;;;12.25;8.13;;;;;;;;;;5060136;28;20652;-46
2023/09/11 00:16:28;;;;;;;14.07;8.30;;;;;;;;;;5053834;28;20478;-45
2023/09/11 00:18:56;;;;;;;12.40;8.70;;;;;;;;;;5054886;28;20356;-46
2023/09/11 00:21:21;;;;;;;13.65;9.27;;;;;;;;;;5056871;28;20053;-46
2023/09/11 00:23:46;;;;;;;14.50;8.43;;;;;;;;;;5058966;28;20516;-46
2023/09/11 00:26:12;;;;;;;15.27;8.13;;;;;;;;;;5052896;28;20557;-46
2023/09/11 00:28:37;;;;;;;12.63;8.02;;;;;;;;;;5053755;28;20021;-46
2023/09/11 00:31:03;;;;;;;14.43;8.57;;;;;;;;;;5051553;28;20490;-46
2023/09/11 00:33:28;;;;;;;12.97;8.83;;;;;;;;;;5054584;28;20023;-46
2023/09/11 00:35:53;;;;;;;11.67;8.30;;;;;;;;;;5056542;28;20031;-46
2023/09/11 00:38:18;;;;;;;12.07;8.30;;;;;;;;;;5050057;28;20278;-46
2023/09/11 00:40:44;;;;;;;15.30;9.00;;;;;;;;;;5059091;28;20044;-46
2023/09/11 00:43:09;;;;;;;13.23;8.73;;;;;;;;;;5058439;28;20051;-46
2023/09/11 00:45:35;;;;;;;12.93;7.87;;;;;;;;;;5060151;28;20055;-46
2023/09/11 00:48:00;;;;;;;10.15;8.30;;;;;;;;;;5060604;28;20039;-46
2023/09/11 00:50:26;;;;;;;17.85;8.63;;;;;;;;;;5054021;28;20075;-46
2023/09/11 00:52:51;;;;;;;11.27;8.25;;;;;;;;;;5052976;28;20032;-46
2023/09/11 00:55:17;;;;;;;13.18;8.20;;;;;;;;;;5053474;28;20029;-45
2023/09/11 00:57:43;;;;;;;15.00;8.55;;;;;;;;;;5059825;28;20028;-46
2023/09/11 01:00:08;;;;;;;13.90;9.38;;;;;;;;;;5057141;28;20479;-46
2023/09/11 01:02:34;;;;;;;11.57;7.90;;;;;;;;;;5054603;28;20031;-46
2023/09/11 01:04:59;;;;;;;14.83;9.00;;;;;;;;;;5055593;28;20089;-46
2023/09/11 01:07:25;;;;;;;12.57;9.35;;;;;;;;;;5055726;28;20315;-46
2023/09/11 01:09:50;;;;;;;15.93;8.68;;;;;;;;;;5056159;28;20029;-46
2023/09/11 01:12:15;;;;;;;13.82;8.35;;;;;;;;;;5051078;28;20030;-46
2023/09/11 01:14:41;;;;;;;14.33;9.23;;;;;;;;;;5056135;28;20407;-46
2023/09/11 01:17:06;;;;;;;21.30;9.48;;;;;;;;;;5057242;28;20048;-46
2023/09/11 01:19:50;;;;;;;13.10;7.80;;;;;;;;;;5051845;28;20024;-46
2023/09/11 01:22:51;;;;;;;12.52;8.05;;;;;;;;;;5054596;28;20024;-46
2023/09/11 01:25:19;;;;;;;14.65;9.48;;;;;;;;;;5034320;28;20039;-46
2023/09/11 01:28:00;;;;;;;77.78;48.75;;;;;;;;;;5052032;28;20055;-46
2023/09/11 01:30:25;;;;;;;32.38;21.45;;;;;;;;;;5049476;28;20021;-46
2023/09/11 01:32:51;;;;;;;18.42;10.52;;;;;;;;;;5056054;28;20036;-46
2023/09/11 01:35:16;;;;;;;13.50;9.38;;;;;;;;;;5057613;28;20059;-46
2023/09/11 01:37:42;;;;;;;13.70;8.95;;;;;;;;;;5051608;28;20021;-46
2023/09/11 01:40:07;;;;;;;11.88;8.75;;;;;;;;;;5053919;28;20032;-46
2023/09/11 01:42:53;;;;;;;15.32;9.13;;;;;;;;;;5051234;28;20025;-46
2023/09/11 01:45:19;;;;;;;8.90;5.28;;;;;;;;;;5053992;28;20115;-46
2023/09/11 01:47:45;;;;;;;12.40;8.77;;;;;;;;;;5058291;28;20427;-46
2023/09/11 01:50:13;;;;;;;14.18;9.00;;;;;;;;;;5063563;28;20039;-46
2023/09/11 01:52:39;;;;;;;13.90;10.07;;;;;;;;;;5057907;28;20029;-46
2023/09/11 01:55:05;;;;;;;13.10;9.77;;;;;;;;;;5057440;28;20078;-46
2023/09/11 01:57:30;;;;;;;16.60;10.48;;;;;;;;;;5060255;28;20047;-46
2023/09/11 01:59:55;;;;;;;14.53;9.60;;;;;;;;;;5062291;28;20565;-45
2023/09/11 02:02:20;;;;;;;12.00;9.27;;;;;;;;;;5046573;28;20024;-45
2023/09/11 02:04:45;;;;;;;20.13;9.50;;;;;;;;;;5057197;28;20024;-46
2023/09/11 02:07:11;;;;;;;14.83;10.00;;;;;;;;;;5054055;28;20021;-46
2023/09/11 02:09:36;;;;;;;12.83;9.70;;;;;;;;;;5053997;28;20063;-46
2023/09/11 02:12:01;;;;;;;17.23;10.80;;;;;;;;;;5053086;28;20016;-46
2023/09/11 02:14:28;;;;;;;15.10;9.20;;;;;;;;;;5053252;28;20283;-45
2023/09/11 02:16:53;;;;;;;14.93;10.82;;;;;;;;;;5050194;28;20293;-46
2023/09/11 02:19:18;;;;;;;14.68;10.38;;;;;;;;;;5054259;28;20040;-46
2023/09/11 02:21:44;;;;;;;13.85;9.93;;;;;;;;;;5053911;28;20040;-46
2023/09/11 02:24:09;;;;;;;14.40;9.87;;;;;;;;;;5054667;28;20133;-45
2023/09/11 02:26:34;;;;;;;13.97;9.33;;;;;;;;;;5056382;28;20032;-46
2023/09/11 02:28:59;;;;;;;13.90;10.03;;;;;;;;;;5056288;28;20932;-46
2023/09/11 02:31:25;;;;;;;13.43;9.50;;;;;;;;;;5050836;28;20162;-46
2023/09/11 02:33:50;;;;;;;14.55;10.63;;;;;;;;;;5056181;28;20444;-46
2023/09/11 02:36:15;;;;;;;12.83;9.20;;;;;;;;;;5047515;28;20040;-46
2023/09/11 02:38:41;;;;;;;17.10;9.63;;;;;;;;;;5054826;28;20105;-46
2023/09/11 02:41:06;;;;;;;16.43;9.87;;;;;;;;;;5053479;28;20112;-45
2023/09/11 02:43:31;;;;;;;14.40;9.40;;;;;;;;;;5052302;28;20020;-45
2023/09/11 02:45:56;;;;;;;15.33;9.77;;;;;;;;;;5056945;28;20552;-46
2023/09/11 02:48:21;;;;;;;14.33;10.43;;;;;;;;;;5058885;28;20020;-46
2023/09/11 02:50:47;;;;;;;14.07;9.23;;;;;;;;;;5058684;28;20023;-45
2023/09/11 02:53:16;;;;;;;14.20;9.73;;;;;;;;;;5059299;28;20692;-45
2023/09/11 02:55:41;;;;;;;14.52;10.43;;;;;;;;;;5059953;28;20021;-46
2023/09/11 02:58:07;;;;;;;15.13;9.82;;;;;;;;;;5058264;28;20031;-45
2023/09/11 03:00:33;;;;;;;13.23;9.97;;;;;;;;;;5052219;28;20391;-45
2023/09/11 03:02:58;;;;;;;11.90;9.40;;;;;;;;;;5059627;28;20273;-45
2023/09/11 03:05:23;;;;;;;15.23;9.83;;;;;;;;;;5056089;28;20036;-45
2023/09/11 03:07:49;;;;;;;14.57;10.53;;;;;;;;;;5060167;28;20107;-46
2023/09/11 03:10:15;;;;;;;15.35;9.43;;;;;;;;;;5061433;28;20108;-45
2023/09/11 03:12:40;;;;;;;15.80;9.70;;;;;;;;;;5057537;28;20107;-46
2023/09/11 03:15:06;;;;;;;8.27;6.70;;;;;;;;;;5059610;28;20029;-45
2023/09/11 03:17:31;;;;;;;15.55;9.75;;;;;;;;;;5051991;28;20066;-45
2023/09/11 03:19:57;;;;;;;14.13;9.82;;;;;;;;;;5056442;28;20107;-45
2023/09/11 03:22:22;;;;;;;19.98;9.27;;;;;;;;;;5059322;28;20105;-45
2023/09/11 03:24:48;;;;;;;12.93;9.90;;;;;;;;;;5057166;28;20029;-46
2023/09/11 03:27:13;;;;;;;14.77;10.38;;;;;;;;;;5056310;28;20032;-45
2023/09/11 03:29:38;;;;;;;16.07;9.73;;;;;;;;;;5057684;28;20104;-46
2023/09/11 03:32:03;;;;;;;13.77;9.10;;;;;;;;;;5059819;28;20496;-45
2023/09/11 03:34:29;;;;;;;16.70;9.88;;;;;;;;;;5056844;28;20025;-46
2023/09/11 03:36:54;;;;;;;15.90;11.03;;;;;;;;;;5051176;28;20028;-46
2023/09/11 03:39:19;;;;;;;17.70;11.13;;;;;;;;;;5058404;28;20121;-46
2023/09/11 03:41:45;;;;;;;13.57;9.27;;;;;;;;;;5055179;28;20036;-46
2023/09/11 03:44:10;;;;;;;13.57;6.20;;;;;;;;;;5058103;28;20121;-46
2023/09/11 03:46:35;;;;;;;14.33;9.40;;;;;;;;;;5061114;28;20700;-46
2023/09/11 03:49:00;;;;;;;13.93;10.33;;;;;;;;;;5062143;28;20028;-45
2023/09/11 03:51:26;;;;;;;15.13;9.60;;;;;;;;;;5054975;28;20033;-46
2023/09/11 03:53:51;;;;;;;15.05;9.70;;;;;;;;;;5053834;28;20290;-45
2023/09/11 03:56:16;;;;;;;14.30;9.63;;;;;;;;;;5063962;28;20360;-46
2023/09/11 03:58:42;;;;;;;14.23;9.95;;;;;;;;;;5058171;28;20286;-46
2023/09/11 04:01:07;;;;;;;12.57;9.40;;;;;;;;;;5058659;28;20033;-46
2023/09/11 04:03:33;;;;;;;13.60;9.70;;;;;;;;;;5058808;28;20482;-45
2023/09/11 04:05:58;;;;;;;19.30;10.90;;;;;;;;;;5050855;28;20303;-46
2023/09/11 04:08:23;;;;;;;14.87;9.77;;;;;;;;;;5051403;28;20374;-46
2023/09/11 04:10:48;;;;;;;16.13;11.30;;;;;;;;;;5046972;28;20281;-45
2023/09/11 04:13:14;;;;;;;15.43;10.63;;;;;;;;;;5054583;28;20285;-45
2023/09/11 04:15:40;;;;;;;18.63;11.15;;;;;;;;;;5054135;28;20382;-46
2023/09/11 04:18:06;;;;;;;16.35;10.40;;;;;;;;;;5055433;28;20025;-45
2023/09/11 04:20:33;;;;;;;16.60;10.70;;;;;;;;;;5055685;28;20025;-45
2023/09/11 04:23:02;;;;;;;35.45;23.35;;;;;;;;;;5052524;28;20376;-45
2023/09/11 04:25:27;;;;;;;27.00;17.23;;;;;;;;;;5053711;28;20391;-45
2023/09/11 04:27:53;;;;;;;21.35;14.43;;;;;;;;;;5058373;28;20025;-45
2023/09/11 04:30:18;;;;;;;17.52;11.52;;;;;;;;;;5051864;28;20044;-46
2023/09/11 04:32:44;;;;;;;15.77;10.25;;;;;;;;;;5055112;28;20052;-46
2023/09/11 04:35:09;;;;;;;17.58;10.27;;;;;;;;;;5056555;28;20040;-45
2023/09/11 04:37:35;;;;;;;17.15;10.95;;;;;;;;;;5057999;28;20381;-45
2023/09/11 04:40:01;;;;;;;18.15;11.43;;;;;;;;;;5052677;28;20024;-45
2023/09/11 04:42:26;;;;;;;15.70;9.82;;;;;;;;;;5052897;28;20094;-45
2023/09/11 04:44:51;;;;;;;19.27;11.10;;;;;;;;;;5053656;28;20067;-45
2023/09/11 04:47:17;;;;;;;17.60;11.55;;;;;;;;;;5048766;28;20052;-45
2023/09/11 04:49:42;;;;;;;20.95;11.82;;;;;;;;;;5050258;28;20021;-46
2023/09/11 04:52:07;;;;;;;19.83;13.13;;;;;;;;;;5057575;28;20037;-45
2023/09/11 04:54:32;;;;;;;18.10;12.43;;;;;;;;;;5056397;28;20033;-45
2023/09/11 04:56:58;;;;;;;27.50;12.23;;;;;;;;;;5061636;28;20222;-45
2023/09/11 04:59:23;;;;;;;20.20;11.10;;;;;;;;;;5055630;28;20498;-45
2023/09/11 05:01:48;;;;;;;17.67;12.57;;;;;;;;;;5051853;28;20339;-45
2023/09/11 05:04:13;;;;;;;17.87;12.63;;;;;;;;;;5054030;28;20486;-45
2023/09/11 05:06:39;;;;;;;20.90;12.93;;;;;;;;;;5060290;28;20036;-45
2023/09/11 05:09:04;;;;;;;17.77;11.70;;;;;;;;;;5058673;28;20074;-45
2023/09/11 05:11:29;;;;;;;18.87;11.80;;;;;;;;;;5058790;28;20282;-46
2023/09/11 05:13:54;;;;;;;27.27;12.60;;;;;;;;;;5058392;28;20829;-45
2023/09/11 05:16:20;;;;;;;38.27;14.47;;;;;;;;;;5056508;28;20036;-45
2023/09/11 05:18:45;;;;;;;26.33;12.30;;;;;;;;;;5055762;28;20033;-45
2023/09/11 05:21:10;;;;;;;30.50;13.88;;;;;;;;;;5060603;28;20028;-45
2023/09/11 05:23:36;;;;;;;40.67;22.43;;;;;;;;;;5056048;28;20029;-45
2023/09/11 05:26:03;;;;;;;53.33;30.30;;;;;;;;;;5052681;28;20422;-45
2023/09/11 05:28:29;;;;;;;29.55;15.20;;;;;;;;;;5060199;28;20154;-45
2023/09/11 05:30:54;;;;;;;26.58;14.70;;;;;;;;;;5053540;28;20016;-45
2023/09/11 05:33:19;;;;;;;24.00;13.13;;;;;;;;;;5055292;28;20021;-46
2023/09/11 05:35:45;;;;;;;35.93;17.40;;;;;;;;;;5054004;28;20115;-45
2023/09/11 05:38:10;;;;;;;24.00;14.38;;;;;;;;;;5054029;28;20502;-45
2023/09/11 05:40:36;;;;;;;28.03;16.90;;;;;;;;;;5058426;28;20029;-46
2023/09/11 05:43:01;;;;;;;24.10;15.13;;;;;;;;;;5052731;28;20274;-45
2023/09/11 05:45:26;;;;;;;25.02;16.48;;;;;;;;;;5042496;28;20029;-45
2023/09/11 05:47:52;;;;;;;28.20;17.40;;;;;;;;;;5045038;28;20115;-46
2023/09/11 05:50:17;;;;;;;13.40;9.47;;;;;;;;;;5051550;28;20036;-45
2023/09/11 05:52:42;;;;;;;27.05;17.90;;;;;;;;;;5048596;28;20283;-45
2023/09/11 05:55:08;;;;;;;24.05;15.90;;;;;;;;;;5052114;28;20060;-46
2023/09/11 05:57:33;;;;;;;31.35;19.40;;;;;;;;;;5053590;28;20032;-45
2023/09/11 05:59:58;;;;;;;28.37;16.83;;;;;;;;;;5055415;28;20029;-45
2023/09/11 06:02:24;;;;;;;22.53;16.33;;;;;;;;;;5048610;28;20773;-45
2023/09/11 06:04:49;;;;;;;24.83;17.17;;;;;;;;;;5049653;28;20020;-45
2023/09/11 06:07:16;;;;;;;47.22;30.13;;;;;;;;;;5050894;28;20037;-45
2023/09/11 06:09:41;;;;;;;26.75;16.42;;;;;;;;;;5057036;28;20039;-46
2023/09/11 06:12:07;;;;;;;20.87;13.97;;;;;;;;;;5055896;28;20029;-45
2023/09/11 06:14:32;;;;;;;25.73;16.48;;;;;;;;;;5046280;28;20102;-46
2023/09/11 06:16:57;;;;;;;23.47;15.73;;;;;;;;;;5052654;28;20039;-46
2023/09/11 06:19:22;;;;;;;18.97;14.50;;;;;;;;;;5053576;28;20111;-46
2023/09/11 06:21:48;;;;;;;27.67;16.37;;;;;;;;;;5054035;28;20035;-45
2023/09/11 06:24:14;;;;;;;25.02;15.13;;;;;;;;;;5050480;28;20033;-46
2023/09/11 06:26:41;;;;;;;24.45;16.42;;;;;;;;;;5049891;28;20028;-45
2023/09/11 06:29:06;;;;;;;22.50;14.85;;;;;;;;;;5064572;28;20063;-45
2023/09/11 06:31:31;;;;;;;22.57;14.70;;;;;;;;;;5053840;28;20111;-46
2023/09/11 06:33:57;;;;;;;24.63;15.73;;;;;;;;;;5050445;28;20825;-46
2023/09/11 06:36:22;;;;;;;35.90;18.80;;;;;;;;;;5055957;28;20361;-45
2023/09/11 06:38:47;;;;;;;21.40;14.90;;;;;;;;;;5044214;28;20657;-45
2023/09/11 06:41:12;;;;;;;22.30;14.90;;;;;;;;;;5045580;28;20028;-46
2023/09/11 06:43:38;;;;;;;27.30;14.50;;;;;;;;;;5052782;28;20127;-46
2023/09/11 06:46:03;;;;;;;25.17;15.47;;;;;;;;;;5053255;28;20626;-45
2023/09/11 06:48:28;;;;;;;29.35;14.68;;;;;;;;;;5048746;28;20038;-45
2023/09/11 06:50:54;;;;;;;63.75;28.23;;;;;;;;;;5047607;28;20035;-45
2023/09/11 06:53:19;;;;;;;46.13;27.58;;;;;;;;;;5049169;28;20099;-45
2023/09/11 06:55:45;;;;;;;27.20;17.25;;;;;;;;;;5057681;28;20028;-45
2023/09/11 06:58:10;;;;;;;51.53;20.55;;;;;;;;;;5056481;28;20008;-45
2023/09/11 07:00:36;;;;;;;48.43;18.80;;;;;;;;;;5060002;28;20602;-45
2023/09/11 07:03:01;;;;;;;37.78;17.52;;;;;;;;;;5056422;28;20282;-46
2023/09/11 07:05:27;;;;;;;29.73;16.58;;;;;;;;;;5057280;28;20367;-45
2023/09/11 07:07:53;;;;;;;37.35;18.48;;;;;;;;;;5061055;28;20029;-45
2023/09/11 07:10:18;;;;;;;22.13;15.13;;;;;;;;;;5060111;28;20111;-45
2023/09/11 07:12:47;;;;;;;20.38;13.48;;;;;;;;;;5051093;28;20035;-45
2023/09/11 07:15:12;;;;;;;23.20;13.50;;;;;;;;;;5051811;28;20013;-46
2023/09/11 07:17:37;;;;;;;23.27;13.68;;;;;;;;;;5056763;28;20024;-46
2023/09/11 07:20:04;;;;;;;27.30;14.47;;;;;;;;;;5053546;28;20038;-45
2023/09/11 07:22:30;;;;;;;25.83;15.13;;;;;;;;;;5058183;28;20286;-46
2023/09/11 07:24:56;;;;;;;23.05;15.13;;;;;;;;;;5053713;28;20036;-45
2023/09/11 07:27:21;;;;;;;25.10;14.88;;;;;;;;;;5055047;28;20040;-46
2023/09/11 07:29:47;;;;;;;63.37;35.57;;;;;;;;;;5057190;28;20678;-45
2023/09/11 07:32:12;;;;;;;33.10;20.13;;;;;;;;;;5058056;28;20033;-46
2023/09/11 07:34:37;;;;;;;27.50;16.90;;;;;;;;;;5059690;28;20020;-46
2023/09/11 07:37:03;;;;;;;29.97;17.20;;;;;;;;;;5058298;28;20580;-46
2023/09/11 07:39:29;;;;;;;23.85;16.08;;;;;;;;;;5056003;28;20274;-46
2023/09/11 07:41:54;;;;;;;40.17;24.85;;;;;;;;;;5055272;28;20095;-45
2023/09/11 07:44:19;;;;;;;29.03;19.00;;;;;;;;;;5058139;28;20047;-46
2023/09/11 07:46:44;;;;;;;31.80;18.07;;;;;;;;;;5057722;28;20098;-45
2023/09/11 07:49:10;;;;;;;24.53;15.07;;;;;;;;;;5061073;28;20028;-45
2023/09/11 07:51:35;;;;;;;23.10;15.40;;;;;;;;;;5056091;28;20031;-45
2023/09/11 07:54:00;;;;;;;22.87;14.90;;;;;;;;;;5056746;28;20093;-45
2023/09/11 07:56:25;;;;;;;23.33;15.27;;;;;;;;;;5061295;28;20090;-45
2023/09/11 07:58:51;;;;;;;22.70;15.30;;;;;;;;;;5058042;28;20036;-46
2023/09/11 08:01:18;;;;;;;25.23;14.80;;;;;;;;;;5058818;28;20028;-46
2023/09/11 08:03:44;;;;;;;22.73;15.30;;;;;;;;;;5056890;28;20027;-46
2023/09/11 08:06:10;;;;;;;28.05;16.65;;;;;;;;;;5059368;28;20028;-45
2023/09/11 08:08:35;;;;;;;23.33;15.00;;;;;;;;;;5059419;28;20051;-46
2023/09/11 08:11:16;;;;;;;25.83;16.57;;;;;;;;;;5059091;28;20072;-46
2023/09/11 08:13:42;;;;;;;22.75;14.85;;;;;;;;;;5057634;28;20040;-46
2023/09/11 08:16:08;;;;;;;23.98;14.57;;;;;;;;;;5054696;28;20025;-46
2023/09/11 08:18:34;;;;;;;19.55;14.38;;;;;;;;;;5056167;28;20036;-46
2023/09/11 08:20:59;;;;;;;25.40;15.80;;;;;;;;;;5059027;28;20032;-46
2023/09/11 08:23:24;;;;;;;38.42;25.48;;;;;;;;;;5061043;28;20081;-46
2023/09/11 08:25:54;;;;;;;28.37;17.97;;;;;;;;;;5057237;28;20126;-46
2023/09/11 08:28:20;;;;;;;19.95;14.10;;;;;;;;;;5058111;28;20069;-46
2023/09/11 08:30:45;;;;;;;19.85;13.40;;;;;;;;;;5059925;28;21257;-46
2023/09/11 08:33:10;;;;;;;21.83;15.23;;;;;;;;;;5059082;28;20029;-46
2023/09/11 08:35:36;;;;;;;22.40;14.13;;;;;;;;;;5058975;28;20040;-45
2023/09/11 08:38:01;;;;;;;22.33;15.03;;;;;;;;;;5058904;28;20028;-46
2023/09/11 08:40:28;;;;;;;30.23;18.17;;;;;;;;;;5058990;28;20033;-46
2023/09/11 08:42:54;;;;;;;22.70;14.13;;;;;;;;;;5055455;28;20353;-46
2023/09/11 08:45:20;;;;;;;19.95;14.20;;;;;;;;;;5060588;28;20028;-46
2023/09/11 08:47:47;;;;;;;16.77;12.75;;;;;;;;;;5059166;28;20558;-46
2023/09/11 08:50:12;;;;;;;18.63;13.30;;;;;;;;;;5058413;28;20021;-46
2023/09/11 08:52:37;;;;;;;18.08;13.27;;;;;;;;;;5058107;28;20502;-46
2023/09/11 08:55:05;;;;;;;18.45;13.27;;;;;;;;;;5062400;28;20028;-46
2023/09/11 08:57:32;;;;;;;18.23;12.80;;;;;;;;;;5061238;28;20096;-46
2023/09/11 09:00:03;;;;;;;18.98;13.88;;;;;;;;;;5055796;28;20040;-46
2023/09/11 09:02:29;;;;;;;19.13;12.40;;;;;;;;;;5059931;28;20037;-46
2023/09/11 09:04:55;;;;;;;23.50;14.77;;;;;;;;;;5062286;28;20040;-46
2023/09/11 09:07:21;;;;;;;30.95;19.23;;;;;;;;;;5061029;28;20035;-46
2023/09/11 09:09:46;;;;;;;19.23;11.57;;;;;;;;;;5059158;28;20020;-46
2023/09/11 09:12:12;;;;;;;24.10;12.77;;;;;;;;;;5056986;28;20021;-45
2023/09/11 09:14:38;;;;;;;22.00;11.80;;;;;;;;;;5063011;28;20028;-46
2023/09/11 09:17:03;;;;;;;21.42;12.43;;;;;;;;;;5062141;28;20051;-46
2023/09/11 09:19:28;;;;;;;18.07;12.37;;;;;;;;;;5058976;28;20390;-46
2023/09/11 09:22:06;;;;;;;18.50;11.87;;;;;;;;;;5056946;28;20796;-46
2023/09/11 09:24:31;;;;;;;19.85;12.68;;;;;;;;;;5059424;28;20020;-46
2023/09/11 09:26:57;;;;;;;16.80;12.65;;;;;;;;;;5058558;28;20082;-46
2023/09/11 09:29:23;;;;;;;18.73;11.88;;;;;;;;;;5056915;28;20016;-46
2023/09/11 09:31:48;;;;;;;16.98;11.85;;;;;;;;;;5060853;28;20028;-46
2023/09/11 09:34:13;;;;;;;18.80;13.50;;;;;;;;;;5061204;28;20060;-46
2023/09/11 09:36:59;;;;;;;18.98;11.98;;;;;;;;;;5061807;28;20435;-46
2023/09/11 09:39:28;;;;;;;18.27;12.07;;;;;;;;;;5062437;28;20037;-46
2023/09/11 09:41:57;;;;;;;15.32;11.50;;;;;;;;;;5070202;28;20024;-46
2023/09/11 09:44:32;;;;;;;15.90;11.18;;;;;;;;;;5063456;28;20086;-46
2023/09/11 09:47:20;;;;;;;15.50;11.80;;;;;;;;;;5057988;28;20036;-46
2023/09/11 09:49:47;;;;;;;10.57;6.72;;;;;;;;;;5064094;28;20023;-46
2023/09/11 09:52:14;;;;;;;18.83;10.68;;;;;;;;;;5059412;28;20013;-46
2023/09/11 09:54:44;;;;;;;14.90;11.10;;;;;;;;;;5055321;28;20047;-46
2023/09/11 09:57:10;;;;;;;13.60;10.02;;;;;;;;;;5057921;28;20494;-46
2023/09/11 09:59:36;;;;;;;16.40;10.60;;;;;;;;;;5059209;28;20043;-46
2023/09/11 10:02:01;;;;;;;15.82;11.15;;;;;;;;;;5055970;28;20024;-46
2023/09/11 10:04:26;;;;;;;23.63;12.63;;;;;;;;;;5059595;28;20039;-46
2023/09/11 10:06:53;;;;;;;15.33;11.87;;;;;;;;;;5056572;28;20025;-46
2023/09/11 10:09:19;;;;;;;17.42;10.95;;;;;;;;;;5059986;28;20267;-46
2023/09/11 10:11:44;;;;;;;14.15;10.50;;;;;;;;;;5058855;28;20025;-46
2023/09/11 10:14:10;;;;;;;13.35;10.32;;;;;;;;;;5056697;28;20024;-46
2023/09/11 10:16:36;;;;;;;16.88;11.10;;;;;;;;;;5058142;28;20021;-46
2023/09/11 10:19:01;;;;;;;14.20;9.30;;;;;;;;;;5058466;28;20067;-46
2023/09/11 10:21:28;;;;;;;18.52;9.60;;;;;;;;;;5064193;28;20060;-46
2023/09/11 10:23:53;;;;;;;12.77;8.82;;;;;;;;;;5060431;28;20033;-46
2023/09/11 10:26:37;;;;;;;10.15;7.13;;;;;;;;;;5060481;28;20118;-46
2023/09/11 10:29:03;;;;;;;27.02;17.17;;;;;;;;;;5062992;28;20008;-46
2023/09/11 10:31:33;;;;;;;13.73;9.05;;;;;;;;;;5058548;28;20487;-46
2023/09/11 10:34:01;;;;;;;12.90;8.32;;;;;;;;;;5061616;28;20025;-46
2023/09/11 10:36:30;;;;;;;11.57;8.57;;;;;;;;;;5059430;28;20028;-47
2023/09/11 10:38:58;;;;;;;10.65;7.93;;;;;;;;;;5059922;28;20024;-46
2023/09/11 10:41:24;;;;;;;11.75;7.97;;;;;;;;;;5062865;28;20040;-46
2023/09/11 10:43:50;;;;;;;12.07;7.65;;;;;;;;;;5057418;28;21004;-46
2023/09/11 10:46:21;;;;;;;15.50;8.60;;;;;;;;;;5065725;28;20024;-46
2023/09/11 10:48:46;;;;;;;18.10;9.70;;;;;;;;;;5062654;28;20022;-46
2023/09/11 10:51:12;;;;;;;13.23;7.60;;;;;;;;;;5061448;28;20074;-46
2023/09/11 10:53:38;;;;;;;11.27;6.60;;;;;;;;;;5061428;28;20055;-46
2023/09/11 10:56:03;;;;;;;10.80;7.25;;;;;;;;;;5057196;28;20467;-46
2023/09/11 10:58:29;;;;;;;9.40;7.32;;;;;;;;;;5055354;28;20043;-46
2023/09/11 11:00:55;;;;;;;11.15;8.23;;;;;;;;;;5055014;28;20047;-46
2023/09/11 11:03:23;;;;;;;12.00;8.48;;;;;;;;;;5062557;28;20025;-46
2023/09/11 11:05:49;;;;;;;14.00;8.20;;;;;;;;;;5070483;28;20021;-46
2023/09/11 11:08:14;;;;;;;12.48;7.47;;;;;;;;;;5065710;28;20106;-46
2023/09/11 11:10:40;;;;;;;9.27;7.25;;;;;;;;;;5063810;28;20032;-46
2023/09/11 11:13:10;;;;;;;17.73;7.55;;;;;;;;;;5069153;28;20013;-46
2023/09/11 11:15:36;;;;;;;13.93;7.40;;;;;;;;;;5067570;28;20085;-46
2023/09/11 11:18:05;;;;;;;10.50;7.07;;;;;;;;;;5062403;28;20429;-46
2023/09/11 11:20:30;;;;;;;15.13;7.25;;;;;;;;;;5066462;28;20391;-46
2023/09/11 11:23:04;;;;;;;9.20;6.72;;;;;;;;;;5063836;28;20035;-46
2023/09/11 11:25:30;;;;;;;12.35;7.68;;;;;;;;;;5069436;28;20024;-46
2023/09/11 11:27:55;;;;;;;11.80;7.10;;;;;;;;;;5062047;28;20185;-46
2023/09/11 11:30:20;;;;;;;12.50;7.23;;;;;;;;;;5070012;28;20062;-46
2023/09/11 11:32:47;;;;;;;11.73;7.53;;;;;;;;;;5066879;28;20576;-46
2023/09/11 11:35:13;;;;;;;11.90;6.78;;;;;;;;;;5061273;28;20572;-46
2023/09/11 11:37:44;;;;;;;12.05;7.05;;;;;;;;;;5065397;28;20489;-46
2023/09/11 11:40:09;;;;;;;11.30;7.63;;;;;;;;;;5070046;28;20024;-46
2023/09/11 11:42:38;;;;;;;13.93;7.93;;;;;;;;;;5061462;28;20263;-46
2023/09/11 11:45:04;;;;;;;14.38;7.85;;;;;;;;;;5066108;28;20543;-46
2023/09/11 11:47:33;;;;;;;29.60;9.13;;;;;;;;;;5070115;28;20032;-46
2023/09/11 11:50:06;;;;;;;11.60;6.45;;;;;;;;;;5063256;28;20017;-46
2023/09/11 11:52:31;;;;;;;10.10;6.55;;;;;;;;;;5058944;28;20021;-46
2023/09/11 11:54:56;;;;;;;11.40;6.70;;;;;;;;;;5065245;28;20031;-46
2023/09/11 11:57:23;;;;;;;9.88;6.60;;;;;;;;;;5059170;28;20029;-46
2023/09/11 11:59:48;;;;;;;9.15;6.80;;;;;;;;;;5059386;28;20028;-46
2023/09/11 12:02:20;;;;;;;14.03;7.30;;;;;;;;;;5063492;28;20024;-47
2023/09/11 12:04:45;;;;;;;11.70;6.82;;;;;;;;;;5063932;28;20024;-46
2023/09/11 12:07:11;;;;;;;15.27;6.93;;;;;;;;;;5067758;28;20027;-46
2023/09/11 12:09:38;;;;;;;7.90;6.22;;;;;;;;;;5065415;28;20324;-47
2023/09/11 12:12:05;;;;;;;12.10;6.80;;;;;;;;;;5064361;28;20016;-46
2023/09/11 12:14:30;;;;;;;10.82;7.20;;;;;;;;;;5061438;28;20886;-46
2023/09/11 12:16:55;;;;;;;14.33;7.13;;;;;;;;;;5064251;28;20043;-46
2023/09/11 12:19:23;;;;;;;10.23;6.45;;;;;;;;;;5064325;28;20085;-46
2023/09/11 12:21:48;;;;;;;8.93;6.13;;;;;;;;;;5059348;28;20036;-46
2023/09/11 12:24:13;;;;;;;11.75;7.22;;;;;;;;;;5063096;28;20052;-47
2023/09/11 12:26:39;;;;;;;9.00;6.63;;;;;;;;;;5053058;28;20033;-46
2023/09/11 12:29:04;;;;;;;11.50;7.45;;;;;;;;;;5066290;28;20511;-46
2023/09/11 12:31:30;;;;;;;13.10;7.28;;;;;;;;;;5067923;28;20027;-46
2023/09/11 12:33:55;;;;;;;10.02;7.13;;;;;;;;;;5065047;28;20008;-46
2023/09/11 12:36:21;;;;;;;11.93;8.27;;;;;;;;;;5063640;28;20021;-46
2023/09/11 12:38:47;;;;;;;12.45;7.65;;;;;;;;;;5067364;28;20028;-46
2023/09/11 12:41:13;;;;;;;10.32;7.13;;;;;;;;;;5068618;28;20029;-46
2023/09/11 12:43:38;;;;;;;10.93;6.97;;;;;;;;;;5060581;28;20372;-46
2023/09/11 12:46:04;;;;;;;10.32;6.75;;;;;;;;;;5064881;28;20028;-46
2023/09/11 12:48:29;;;;;;;14.27;7.13;;;;;;;;;;5063179;28;20028;-46
2023/09/11 12:50:55;;;;;;;13.80;8.95;;;;;;;;;;5066932;28;20588;-46
2023/09/11 12:53:20;;;;;;;11.05;7.10;;;;;;;;;;5063894;28;20028;-46
2023/09/11 12:55:46;;;;;;;17.83;9.00;;;;;;;;;;5063017;28;20035;-46
2023/09/11 12:58:12;;;;;;;14.73;8.10;;;;;;;;;;5066245;28;20035;-45
2023/09/11 13:00:42;;;;;;;12.53;7.73;;;;;;;;;;5057768;28;20029;-46
2023/09/11 13:03:08;;;;;;;13.43;7.57;;;;;;;;;;5063746;28;20028;-45
2023/09/11 13:05:34;;;;;;;12.45;7.30;;;;;;;;;;5061349;28;20104;-46
2023/09/11 13:08:00;;;;;;;11.93;7.15;;;;;;;;;;5059854;28;20044;-46
2023/09/11 13:10:26;;;;;;;13.13;7.18;;;;;;;;;;5061132;28;20028;-46
2023/09/11 13:12:51;;;;;;;16.52;8.25;;;;;;;;;;5061730;28;20023;-46
2023/09/11 13:15:17;;;;;;;12.55;7.10;;;;;;;;;;5068632;28;20024;-46
2023/09/11 13:17:45;;;;;;;11.82;6.90;;;;;;;;;;5063343;28;20025;-46
2023/09/11 13:20:10;;;;;;;21.00;11.07;;;;;;;;;;5065076;28;20407;-46
2023/09/11 13:22:35;;;;;;;9.85;6.40;;;;;;;;;;5063037;28;20029;-45
2023/09/11 13:25:01;;;;;;;12.27;7.67;;;;;;;;;;5065982;28;20039;-46
2023/09/11 13:27:26;;;;;;;13.00;6.60;;;;;;;;;;5063883;28;20090;-46
2023/09/11 13:29:52;;;;;;;12.23;6.53;;;;;;;;;;5066341;28;20028;-46
2023/09/11 13:32:17;;;;;;;13.48;8.18;;;;;;;;;;5073165;28;20263;-46
2023/09/11 13:34:45;;;;;;;8.82;6.03;;;;;;;;;;5060296;28;20028;-46
2023/09/11 13:37:11;;;;;;;10.68;6.60;;;;;;;;;;5060772;28;20029;-46
2023/09/11 13:39:36;;;;;;;12.63;6.40;;;;;;;;;;5065253;28;20032;-46
2023/09/11 13:42:01;;;;;;;16.07;6.67;;;;;;;;;;5046703;28;20033;-46
2023/09/11 13:44:27;;;;;;;9.20;6.27;;;;;;;;;;5068488;28;20355;-46
2023/09/11 13:46:52;;;;;;;12.50;7.80;;;;;;;;;;5059145;28;20546;-46
2023/09/11 13:49:18;;;;;;;8.93;5.90;;;;;;;;;;5062030;28;20193;-46
2023/09/11 13:51:43;;;;;;;14.43;6.57;;;;;;;;;;5064519;28;20021;-46
2023/09/11 13:54:09;;;;;;;12.05;6.60;;;;;;;;;;5059440;28;20054;-46
2023/09/11 13:56:34;;;;;;;12.43;6.57;;;;;;;;;;5065325;28;20074;-46
2023/09/11 13:58:59;;;;;;;10.97;6.07;;;;;;;;;;5055957;28;20059;-46
2023/09/11 14:01:24;;;;;;;9.57;6.70;;;;;;;;;;5061275;28;20085;-46
2023/09/11 14:03:50;;;;;;;13.37;6.10;;;;;;;;;;5064032;28;20275;-46
2023/09/11 14:06:15;;;;;;;11.90;6.53;;;;;;;;;;5064359;28;20116;-46
2023/09/11 14:08:40;;;;;;;16.13;7.77;;;;;;;;;;5063322;28;20028;-46
2023/09/11 14:11:12;;;;;;;10.97;8.33;;;;;;;;;;5064687;28;20028;-46
2023/09/11 14:13:37;;;;;;;9.88;7.63;;;;;;;;;;5059170;28;20033;-46
2023/09/11 14:16:03;;;;;;;12.23;6.77;;;;;;;;;;5062151;28;20035;-46
2023/09/11 14:18:31;;;;;;;14.23;6.47;;;;;;;;;;5064128;28;20586;-46